createdAt,value
2023-01-04T16:51:42.757Z,24.70
2023-01-04T16:54:17.067Z,25.40
2023-01-04T16:56:50.523Z,28.80
2023-01-04T16:59:23.198Z,29.20
2023-01-04T17:01:58.156Z,23.50
2023-01-04T17:04:30.818Z,26.10
2023-01-04T17:07:03.059Z,28.40
2023-01-04T17:09:35.379Z,25.70
2023-01-04T17:17:51.331Z,27.80
2023-01-04T17:20:24.737Z,31.60
2023-01-04T17:22:57.133Z,43.30
2023-01-04T17:25:29.373Z,55.00
2023-01-04T17:28:01.760Z,52.20
2023-01-04T17:30:33.915Z,50.40
2023-01-04T17:33:07.926Z,43.90
2023-01-04T17:35:40.651Z,45.20
2023-01-04T17:38:13.072Z,47.40
2023-01-04T17:40:47.337Z,47.20
2023-01-04T17:43:20.520Z,48.60
2023-01-04T17:45:52.800Z,44.90
2023-01-04T17:48:25.086Z,46.80
2023-01-04T17:50:57.587Z,48.30
2023-01-04T17:56:04.366Z,47.10
2023-01-04T17:58:37.417Z,45.70
2023-01-04T18:01:14.537Z,45.60
2023-01-04T18:03:48.304Z,50.80
2023-01-04T18:06:26.012Z,43.80
2023-01-04T18:08:59.336Z,43.00
2023-01-04T18:11:32.018Z,43.10
2023-01-04T18:16:57.028Z,49.90
2023-01-04T18:19:31.514Z,37.40
2023-01-04T18:22:03.919Z,39.30
2023-01-04T18:24:37.756Z,42.90
2023-01-04T18:27:26.962Z,43.00
2023-01-04T18:29:59.300Z,38.70
2023-01-04T18:32:31.523Z,43.20
2023-01-04T18:35:05.651Z,35.50
2023-01-04T18:37:38.312Z,57.60
2023-01-04T18:42:43.156Z,65.40
2023-01-04T18:47:47.640Z,63.40
2023-01-04T18:50:20.486Z,61.80
2023-01-04T18:52:52.877Z,57.60
2023-01-04T18:55:25.292Z,59.20
2023-01-04T18:57:57.668Z,53.50
2023-01-04T19:00:30.054Z,47.40
2023-01-04T19:03:02.459Z,47.50
2023-01-04T19:05:34.844Z,54.40
2023-01-04T19:08:07.919Z,50.10
2023-01-04T19:10:40.230Z,49.70
2023-01-04T19:13:12.560Z,47.00
2023-01-04T19:15:47.833Z,50.80
2023-01-04T19:18:20.215Z,50.70
2023-01-04T19:20:52.532Z,47.40
2023-01-04T19:23:24.942Z,44.40
2023-01-04T19:25:57.273Z,39.80
2023-01-04T19:28:29.669Z,36.90
2023-01-04T19:31:05.475Z,39.40
2023-01-04T19:33:39.269Z,39.40
2023-01-04T19:36:14.208Z,46.20
2023-01-04T19:38:46.644Z,48.70
2023-01-04T19:41:21.287Z,43.70
2023-01-04T19:43:53.931Z,39.80
2023-01-04T19:46:26.619Z,40.10
2023-01-04T19:49:00.241Z,41.40
2023-01-04T19:54:03.336Z,41.00
2023-01-04T19:56:35.618Z,48.40
2023-01-04T19:59:07.963Z,44.30
2023-01-04T20:01:40.446Z,41.50
2023-01-04T20:04:13.957Z,45.00
2023-01-04T20:06:46.250Z,37.20
2023-01-04T20:09:24.784Z,42.70
2023-01-04T20:11:57.606Z,36.10
2023-01-04T20:14:30.396Z,41.90
2023-01-04T20:17:02.709Z,40.90
2023-01-04T20:19:35.088Z,33.90
2023-01-04T20:22:07.656Z,29.40
2023-01-04T20:24:40.165Z,29.60
2023-01-04T20:27:12.676Z,29.30
2023-01-04T20:29:45.168Z,25.60
2023-01-04T20:32:17.690Z,26.70
2023-01-04T20:34:50.169Z,28.20
2023-01-04T20:37:22.652Z,25.10
2023-01-04T20:39:55.004Z,27.20
2023-01-04T20:42:45.162Z,28.40
2023-01-04T20:45:17.644Z,30.20
2023-01-04T20:47:50.113Z,27.50
2023-01-04T20:50:22.608Z,27.30
2023-01-04T20:52:55.085Z,28.20
2023-01-04T20:55:27.517Z,29.00
2023-01-04T20:57:59.912Z,30.20
2023-01-04T21:00:34.695Z,30.40
2023-01-04T21:03:08.513Z,27.40
2023-01-04T21:05:43.079Z,35.10
2023-01-04T21:08:16.051Z,25.10
2023-01-04T21:10:48.460Z,27.70
2023-01-04T21:13:20.958Z,31.20
2023-01-04T21:15:53.628Z,30.50
2023-01-04T21:20:57.313Z,30.30
2023-01-04T21:23:29.856Z,29.30
2023-01-04T21:26:02.255Z,27.10
2023-01-04T21:28:34.867Z,30.50
2023-01-04T21:31:12.174Z,32.30
2023-01-04T21:33:46.961Z,28.00
2023-01-04T21:36:20.805Z,32.10
2023-01-04T21:38:53.934Z,35.10
2023-01-04T21:41:27.351Z,34.70
2023-01-04T21:44:00.462Z,36.60
2023-01-04T21:46:33.373Z,37.90
2023-01-04T21:49:06.630Z,37.50
2023-01-04T21:51:39.345Z,38.40
2023-01-04T21:56:42.699Z,44.40
2023-01-04T21:59:15.164Z,38.20
2023-01-04T22:01:47.692Z,35.30
2023-01-04T22:04:20.801Z,40.60
2023-01-04T22:06:53.372Z,35.70
2023-01-04T22:09:26.032Z,36.00
2023-01-04T22:11:58.424Z,32.80
2023-01-04T22:14:30.955Z,34.30
2023-01-04T22:17:06.113Z,35.50
2023-01-04T22:19:38.556Z,33.00
2023-01-04T22:22:11.307Z,32.00
2023-01-04T22:24:43.897Z,31.50
2023-01-04T22:27:16.609Z,29.90
2023-01-04T22:29:49.143Z,30.70
2023-01-04T22:32:23.385Z,34.10
2023-01-04T22:34:56.395Z,32.60
2023-01-04T22:37:28.831Z,28.20
2023-01-04T22:40:01.306Z,31.00
2023-01-04T22:42:33.837Z,30.00
2023-01-04T22:45:13.052Z,30.40
2023-01-04T22:47:46.015Z,27.80
2023-01-04T22:50:19.024Z,24.90
2023-01-04T22:53:00.498Z,27.40
2023-01-04T22:55:59.867Z,28.70
2023-01-04T22:58:26.342Z,49.60
2023-01-04T23:00:58.870Z,30.80
2023-01-04T23:03:31.884Z,33.00
2023-01-04T23:06:07.766Z,31.00
2023-01-04T23:08:41.007Z,30.70
2023-01-04T23:11:15.278Z,29.80
2023-01-04T23:13:48.202Z,27.80
2023-01-04T23:16:23.658Z,30.40
2023-01-04T23:18:58.860Z,30.60
2023-01-04T23:21:31.321Z,33.10
